createdAt,value
2019-04-05T00:05:08.574Z,86
2019-04-05T00:15:16.267Z,85.9
2019-04-05T00:25:19.799Z,86.7
2019-04-05T00:35:23.243Z,86.4
2019-04-05T00:45:28.950Z,87.1
2019-04-05T00:55:32.420Z,87.4
2019-04-05T01:05:35.860Z,86.7
2019-04-05T01:15:41.478Z,86
2019-04-05T01:25:44.981Z,86.1
2019-04-05T01:35:48.401Z,84.5
2019-04-05T01:45:54.426Z,86.4
2019-04-05T01:55:57.907Z,85.5
2019-04-05T02:06:01.308Z,85.1
2019-04-05T02:16:07.059Z,85.4
2019-04-05T02:26:10.556Z,85.1
2019-04-05T02:36:14.032Z,84.4
2019-04-05T02:46:24.485Z,84.7
2019-04-05T02:56:28.023Z,85.2
2019-04-05T03:06:32.473Z,85.5
2019-04-05T03:16:42.101Z,86.2
2019-04-05T03:26:45.698Z,85.8
2019-04-05T03:36:52.117Z,85.2
2019-04-05T03:46:58.187Z,85.8
2019-04-05T03:57:01.712Z,84.7
2019-04-05T04:07:05.199Z,85.5
2019-04-05T04:17:13.687Z,85.6
2019-04-05T04:27:17.230Z,85.6
2019-04-05T04:37:20.710Z,85.5
2019-04-05T04:47:27.596Z,87.2
2019-04-05T04:57:31.070Z,87.2
2019-04-05T05:07:34.514Z,86
2019-04-05T05:17:39.258Z,86.2
2019-04-05T05:27:42.721Z,85.7
2019-04-05T05:37:46.162Z,85.5
2019-04-05T05:47:52.648Z,85.9
2019-04-05T05:57:58.911Z,85.2
2019-04-05T06:08:02.327Z,84.5
2019-04-05T06:18:05.740Z,86.4
2019-04-05T06:28:09.169Z,84.8
2019-04-05T06:38:12.578Z,84.9
2019-04-05T06:48:19.954Z,85.1
2019-04-05T06:58:29.506Z,84.9
2019-04-05T07:08:33.122Z,85.8
2019-04-05T07:18:36.699Z,86.2
2019-04-05T07:28:40.170Z,86.7
2019-04-05T07:38:43.592Z,85.1
2019-04-05T07:48:47.024Z,85.6
2019-04-05T07:58:50.494Z,84.7
2019-04-05T08:08:53.901Z,83.2
2019-04-05T08:18:58.550Z,83.7
2019-04-05T08:29:02.003Z,83
2019-04-05T08:39:06.439Z,83.8
2019-04-05T08:49:11.940Z,84.7
2019-04-05T08:59:15.548Z,84.4
2019-04-05T09:09:18.994Z,83.2
2019-04-05T09:19:24.261Z,84
2019-04-05T09:29:27.756Z,81.4
2019-04-05T09:39:31.182Z,82.1
2019-04-05T09:49:37.435Z,80
2019-04-05T09:59:40.895Z,79
2019-04-05T10:09:44.351Z,79.2
2019-04-05T10:19:50.603Z,76.5
2019-04-05T10:29:54.259Z,73.7
2019-04-05T10:39:57.675Z,77.1
2019-04-05T10:50:03.858Z,78
2019-04-05T11:00:07.353Z,78.1
2019-04-05T11:10:10.806Z,71.1
2019-04-05T11:20:22.257Z,74.2
2019-04-05T11:30:27.190Z,68.5
2019-04-05T11:40:30.596Z,68.5
2019-04-05T11:50:35.249Z,72.4
2019-04-05T12:00:38.716Z,68.6
2019-04-05T12:10:42.148Z,63.4
2019-04-05T12:20:59.883Z,64.1
2019-04-05T12:31:08.939Z,64.7
2019-04-05T12:41:12.375Z,65.8
2019-04-05T12:51:16.503Z,62.8
2019-04-05T13:01:19.955Z,63.5
2019-04-05T13:11:26.927Z,66
2019-04-05T13:21:33.326Z,64.2
2019-04-05T13:31:36.770Z,63.3
2019-04-05T13:41:40.210Z,63.3
2019-04-05T13:51:43.641Z,64.8
2019-04-05T14:01:51.598Z,61.3
2019-04-05T14:11:55.092Z,63.4
2019-04-05T14:22:09.301Z,61.1
2019-04-05T14:32:22.044Z,60.4
2019-04-05T14:42:25.671Z,59.1
2019-04-05T14:52:31.928Z,57.4
2019-04-05T15:02:35.362Z,58.3
2019-04-05T15:12:38.818Z,57.7
2019-04-05T15:22:42.447Z,59.6
2019-04-05T15:32:45.888Z,59.4
2019-04-05T15:42:49.351Z,58.6
2019-04-05T15:52:52.787Z,58.2
2019-04-05T16:02:56.210Z,57.9
2019-04-05T16:12:59.632Z,57.1
2019-04-05T16:23:03.076Z,59.2
2019-04-05T16:33:06.515Z,59
2019-04-05T16:43:09.980Z,60.1
2019-04-05T16:53:13.435Z,59.5
2019-04-05T17:03:16.859Z,59.1
2019-04-05T17:13:20.298Z,59.8
2019-04-05T17:23:23.736Z,59.2
2019-04-05T17:33:27.191Z,61.2
2019-04-05T17:43:31.621Z,60.4
2019-04-05T17:53:35.059Z,62.7
2019-04-05T18:03:38.507Z,62.2
2019-04-05T18:13:41.964Z,66.1
2019-04-05T18:23:45.400Z,66.7
2019-04-05T18:33:48.860Z,66.3
2019-04-05T18:43:52.302Z,67.5
2019-04-05T18:53:55.757Z,67.2
2019-04-05T19:03:59.168Z,67.5
2019-04-05T19:14:02.709Z,69.5
2019-04-05T19:24:06.180Z,69.7
2019-04-05T19:58:16.554Z,70.5
2019-04-05T20:08:19.981Z,71.8
2019-04-05T20:18:23.460Z,72.2
2019-04-05T20:28:26.924Z,71.2
2019-04-05T20:38:30.368Z,72.3
2019-04-05T20:48:33.821Z,72.7
2019-04-05T20:58:37.272Z,72.7
2019-04-05T21:08:40.714Z,73.5
2019-04-05T21:18:44.134Z,72.2
2019-04-05T21:28:47.579Z,73.3
2019-04-05T21:38:51.051Z,73.2
2019-04-05T21:48:54.514Z,74.3
2019-04-05T21:58:57.938Z,73.3
2019-04-05T22:09:01.385Z,73.3
2019-04-05T22:19:04.828Z,73.3
2019-04-05T22:29:08.276Z,73.9
2019-04-05T22:39:11.711Z,73
2019-04-05T22:49:15.139Z,72.8
2019-04-05T22:59:18.614Z,73
2019-04-05T23:09:22.039Z,73.7
2019-04-05T23:19:25.519Z,73.3
2019-04-05T23:29:28.992Z,74.1
2019-04-05T23:39:32.405Z,73.6
2019-04-05T23:49:35.880Z,73.8
2019-04-05T23:59:39.309Z,74.2
